createdAt,value
2023-05-05T00:00:58.119Z,3.10
2023-05-05T00:03:25.575Z,3.67
2023-05-05T00:05:54.468Z,3.60
2023-05-05T00:08:22.166Z,3.70
2023-05-05T00:10:50.678Z,2.83
2023-05-05T00:13:18.081Z,3.83
2023-05-05T00:15:46.212Z,3.20
2023-05-05T00:18:15.982Z,3.53
2023-05-05T00:20:43.732Z,3.78
2023-05-05T00:23:10.725Z,3.92
2023-05-05T00:25:37.736Z,4.20
2023-05-05T00:28:04.952Z,3.60
2023-05-05T00:30:31.962Z,4.10
2023-05-05T00:32:59.031Z,3.50
2023-05-05T00:35:27.314Z,3.45
2023-05-05T00:37:55.129Z,3.78
2023-05-05T00:40:22.194Z,3.72
2023-05-05T00:42:52.503Z,3.53
2023-05-05T00:45:19.961Z,3.50
2023-05-05T00:47:52.540Z,3.08
2023-05-05T00:50:26.855Z,3.75
2023-05-05T00:52:58.807Z,3.33
2023-05-05T00:55:26.275Z,3.42
2023-05-05T00:57:53.488Z,3.55
2023-05-05T01:00:20.475Z,3.45
2023-05-05T01:02:47.628Z,3.38
2023-05-05T01:05:15.155Z,3.30
2023-05-05T01:08:19.611Z,3.58
2023-05-05T01:10:52.592Z,3.33
2023-05-05T01:13:31.866Z,3.35
2023-05-05T01:16:12.650Z,3.65
2023-05-05T01:19:05.880Z,3.50
2023-05-05T01:21:36.330Z,3.15
2023-05-05T01:24:45.169Z,3.58
2023-05-05T01:27:55.718Z,3.80
2023-05-05T01:30:46.066Z,3.55
2023-05-05T01:33:15.433Z,3.25
2023-05-05T01:35:52.530Z,3.78
2023-05-05T01:38:22.404Z,3.47
2023-05-05T01:40:52.030Z,3.28
2023-05-05T01:43:20.211Z,3.53
2023-05-05T01:45:47.430Z,3.90
2023-05-05T01:48:16.430Z,3.90
2023-05-05T01:50:43.476Z,3.70
2023-05-05T01:53:10.486Z,3.60
2023-05-05T01:55:37.486Z,3.63
2023-05-05T01:58:04.864Z,3.90
2023-05-05T02:00:32.187Z,3.70
2023-05-05T02:02:59.980Z,3.80
2023-05-05T02:05:27.212Z,3.88
2023-05-05T02:07:56.847Z,3.97
2023-05-05T02:10:24.287Z,3.60
2023-05-05T02:12:51.520Z,3.40
2023-05-05T02:15:18.889Z,3.40
2023-05-05T02:17:45.865Z,3.25
2023-05-05T02:20:13.188Z,3.83
2023-05-05T02:22:40.459Z,3.20
2023-05-05T02:25:08.206Z,3.50
2023-05-05T02:27:35.626Z,3.45
2023-05-05T02:30:05.037Z,3.15
2023-05-05T02:32:34.914Z,3.65
2023-05-05T02:35:07.351Z,3.10
2023-05-05T02:37:36.560Z,3.30
2023-05-05T02:40:05.457Z,3.47
2023-05-05T02:42:39.514Z,3.28
2023-05-05T02:45:14.563Z,3.60
2023-05-05T02:47:45.428Z,3.03
2023-05-05T02:50:12.933Z,3.47
2023-05-05T02:52:46.067Z,3.53
2023-05-05T02:55:15.606Z,3.42
2023-05-05T02:58:06.790Z,3.10
2023-05-05T03:00:58.174Z,3.53
2023-05-05T03:03:46.896Z,3.70
2023-05-05T03:06:21.275Z,3.80
2023-05-05T03:09:34.798Z,3.30
2023-05-05T03:12:06.725Z,2.97
2023-05-05T03:14:44.051Z,3.50
2023-05-05T03:17:14.298Z,3.10
2023-05-05T03:19:42.069Z,3.28
2023-05-05T03:22:09.171Z,3.58
2023-05-05T03:24:37.836Z,3.58
2023-05-05T03:27:08.621Z,3.50
2023-05-05T03:29:38.492Z,3.70
2023-05-05T03:32:09.666Z,3.97
2023-05-05T03:34:37.916Z,3.10
2023-05-05T03:37:06.090Z,2.97
2023-05-05T03:39:33.449Z,3.33
2023-05-05T03:42:00.794Z,3.20
2023-05-05T03:44:31.615Z,3.25
2023-05-05T03:46:58.659Z,3.65
2023-05-05T03:49:26.878Z,3.30
2023-05-05T03:51:54.352Z,3.70
2023-05-05T03:54:21.410Z,3.70
2023-05-05T03:56:48.381Z,3.88
2023-05-05T03:59:16.087Z,3.85
2023-05-05T04:01:45.139Z,4.47
2023-05-05T04:04:12.477Z,4.00
2023-05-05T04:06:39.583Z,4.28
2023-05-05T04:09:07.273Z,4.25
2023-05-05T04:11:34.277Z,4.25
2023-05-05T04:14:01.388Z,4.30
2023-05-05T04:16:31.143Z,4.20
2023-05-05T04:18:59.330Z,4.93
2023-05-05T04:21:27.201Z,4.22
2023-05-05T04:23:54.295Z,3.83
2023-05-05T04:26:22.291Z,4.00
2023-05-05T04:28:49.674Z,4.22
2023-05-05T04:31:18.230Z,4.38
2023-05-05T04:33:46.427Z,4.38
2023-05-05T04:36:14.125Z,4.28
2023-05-05T04:38:41.696Z,5.00
2023-05-05T04:41:08.781Z,4.50
2023-05-05T04:43:37.882Z,4.45
2023-05-05T04:46:05.210Z,4.22
2023-05-05T04:48:34.510Z,4.60
2023-05-05T04:51:07.117Z,4.55
2023-05-05T04:53:34.857Z,4.25
2023-05-05T04:56:02.182Z,3.90
2023-05-05T04:58:29.230Z,4.05
2023-05-05T05:00:56.304Z,4.18
2023-05-05T05:03:23.537Z,4.10
2023-05-05T05:05:50.714Z,3.97
2023-05-05T05:08:17.873Z,4.20
2023-05-05T05:10:45.031Z,4.65
2023-05-05T05:13:12.852Z,4.57
2023-05-05T05:15:40.857Z,4.65
2023-05-05T05:18:08.154Z,4.30
2023-05-05T05:20:35.424Z,4.20
2023-05-05T05:23:02.557Z,4.00
2023-05-05T05:25:31.116Z,4.68
2023-05-05T05:28:08.914Z,4.75
2023-05-05T05:30:41.425Z,4.85
2023-05-05T05:33:10.791Z,4.70
2023-05-05T05:35:38.734Z,5.75
2023-05-05T05:38:06.450Z,5.22
2023-05-05T05:40:33.800Z,4.80
2023-05-05T05:43:01.060Z,5.18
2023-05-05T05:45:28.739Z,4.75
2023-05-05T05:47:55.914Z,5.30
2023-05-05T05:50:24.540Z,6.00
2023-05-05T05:52:51.934Z,6.35
2023-05-05T05:55:19.531Z,7.45
2023-05-05T05:57:46.509Z,7.07
2023-05-05T06:00:15.850Z,6.18
2023-05-05T06:02:48.372Z,6.30
2023-05-05T06:05:18.780Z,6.25
2023-05-05T06:07:47.010Z,5.88
2023-05-05T06:10:26.560Z,7.07
2023-05-05T06:12:59.710Z,7.43
2023-05-05T06:15:26.989Z,6.50
2023-05-05T06:17:54.240Z,6.20
2023-05-05T06:20:22.490Z,6.05
2023-05-05T06:22:49.561Z,6.25
2023-05-05T06:25:17.210Z,6.38
2023-05-05T06:27:44.810Z,5.78
2023-05-05T06:30:12.224Z,6.43
2023-05-05T06:32:39.418Z,6.47
2023-05-05T06:35:07.261Z,6.18
2023-05-05T06:37:34.271Z,6.25
2023-05-05T06:40:01.379Z,7.07
2023-05-05T06:42:28.579Z,6.68
2023-05-05T06:44:58.189Z,6.13
2023-05-05T06:47:25.439Z,6.55
2023-05-05T06:49:52.411Z,7.35
2023-05-05T06:52:19.456Z,7.38
2023-05-05T06:54:46.397Z,7.20
2023-05-05T06:57:13.419Z,7.88
2023-05-05T06:59:40.476Z,8.20
2023-05-05T07:02:07.602Z,8.00
2023-05-05T07:04:34.676Z,7.65
2023-05-05T07:07:01.952Z,7.72
2023-05-05T07:09:29.031Z,8.25
2023-05-05T07:11:56.099Z,8.18
2023-05-05T07:14:24.496Z,7.72
2023-05-05T07:16:51.750Z,7.82
2023-05-05T07:19:18.830Z,8.27
2023-05-05T07:21:47.329Z,9.23
2023-05-05T07:24:14.281Z,8.50
2023-05-05T07:26:41.267Z,8.48
2023-05-05T07:29:08.214Z,7.90
2023-05-05T07:31:35.249Z,8.93
2023-05-05T07:34:02.237Z,9.52
2023-05-05T07:36:29.277Z,9.30
2023-05-05T07:38:56.323Z,10.48
2023-05-05T07:41:23.742Z,10.15
2023-05-05T07:43:51.011Z,9.75
2023-05-05T07:46:18.375Z,9.77
2023-05-05T07:48:45.544Z,9.85
2023-05-05T07:51:12.587Z,9.85
2023-05-05T07:53:41.098Z,10.02
2023-05-05T07:56:09.068Z,9.93
2023-05-05T07:58:36.338Z,9.82
2023-05-05T08:01:06.034Z,10.45
2023-05-05T08:03:33.420Z,10.40
2023-05-05T08:06:06.796Z,10.40
2023-05-05T08:08:33.877Z,11.48
2023-05-05T08:11:01.351Z,10.65
2023-05-05T08:13:28.767Z,11.02
2023-05-05T08:15:56.330Z,9.45
2023-05-05T08:18:24.530Z,10.10
2023-05-05T08:20:52.992Z,10.20
2023-05-05T08:23:20.078Z,10.60
2023-05-05T08:25:47.124Z,10.65
2023-05-05T08:28:14.090Z,10.38
2023-05-05T08:30:41.460Z,11.32
2023-05-05T08:33:08.530Z,10.77
2023-05-05T08:35:35.486Z,10.48
2023-05-05T08:38:02.570Z,10.70
2023-05-05T08:40:33.048Z,11.60
2023-05-05T08:43:01.021Z,11.88
2023-05-05T08:45:31.201Z,9.80
2023-05-05T08:48:02.917Z,10.80
2023-05-05T08:50:30.462Z,11.63
2023-05-05T08:53:03.278Z,11.30
2023-05-05T08:55:34.301Z,9.82
2023-05-05T08:58:04.213Z,9.82
2023-05-05T09:00:31.343Z,9.90
2023-05-05T09:02:59.185Z,9.48
2023-05-05T09:05:26.575Z,9.45
2023-05-05T09:07:53.579Z,9.88
2023-05-05T09:10:21.041Z,9.20
2023-05-05T09:12:50.448Z,8.90
2023-05-05T09:15:17.458Z,9.23
2023-05-05T09:17:44.667Z,9.60
2023-05-05T09:20:12.749Z,7.68
2023-05-05T09:22:47.024Z,7.75
2023-05-05T09:25:15.166Z,8.52
2023-05-05T09:27:43.501Z,7.00
2023-05-05T09:30:11.120Z,6.53
2023-05-05T09:32:49.885Z,6.80
2023-05-05T09:35:17.491Z,6.57
2023-05-05T09:37:44.543Z,7.50
2023-05-05T09:40:13.312Z,7.07
2023-05-05T09:42:40.547Z,6.82
2023-05-05T09:45:27.950Z,7.03
2023-05-05T09:47:59.839Z,6.13
2023-05-05T09:50:30.424Z,7.18
2023-05-05T09:55:26.009Z,7.10
2023-05-05T09:57:53.155Z,7.35
2023-05-05T10:00:20.615Z,6.70
2023-05-05T10:02:47.619Z,6.20
2023-05-05T10:05:16.028Z,6.53
2023-05-05T10:07:44.710Z,6.60
2023-05-05T10:10:16.679Z,5.40
2023-05-05T10:12:44.249Z,5.97
2023-05-05T10:15:11.739Z,5.65
2023-05-05T10:20:18.702Z,5.13
2023-05-05T10:22:53.447Z,5.82
2023-05-05T10:25:29.756Z,5.47
2023-05-05T10:27:59.388Z,5.90
2023-05-05T10:30:31.873Z,6.07
2023-05-05T10:33:22.665Z,6.18
2023-05-05T10:35:51.685Z,7.10
2023-05-05T10:38:18.665Z,5.60
2023-05-05T10:40:46.004Z,6.82
2023-05-05T10:43:14.223Z,6.07
2023-05-05T10:45:41.890Z,6.22
2023-05-05T10:48:19.012Z,5.95
2023-05-05T10:50:49.967Z,5.78
2023-05-05T10:53:28.883Z,6.05
2023-05-05T10:56:06.532Z,6.30
2023-05-05T10:58:43.728Z,5.70
2023-05-05T11:01:34.992Z,5.55
2023-05-05T11:04:17.271Z,5.60
2023-05-05T11:07:11.801Z,6.72
2023-05-05T11:10:14.662Z,6.18
2023-05-05T11:13:02.956Z,5.95
2023-05-05T11:15:30.400Z,5.03
2023-05-05T11:18:03.204Z,4.25
2023-05-05T11:20:40.889Z,4.43
2023-05-05T11:23:07.902Z,4.78
2023-05-05T11:25:39.125Z,4.00
2023-05-05T11:28:12.071Z,4.35
2023-05-05T11:31:17.746Z,4.18
2023-05-05T11:33:44.979Z,3.92
2023-05-05T11:36:15.730Z,3.58
2023-05-05T11:39:01.664Z,4.00
2023-05-05T11:41:32.057Z,3.40
2023-05-05T11:44:18.281Z,3.42
2023-05-05T11:46:51.366Z,3.40
2023-05-05T11:49:27.945Z,3.17
2023-05-05T11:54:25.401Z,3.17
2023-05-05T11:56:53.851Z,2.80
2023-05-05T11:59:21.056Z,3.63
2023-05-05T12:01:48.031Z,3.35
2023-05-05T12:04:15.372Z,3.00
2023-05-05T12:06:42.709Z,3.30
2023-05-05T12:09:16.179Z,4.00
2023-05-05T12:11:49.938Z,3.25
2023-05-05T12:14:17.028Z,3.47
2023-05-05T12:17:13.090Z,3.47
2023-05-05T12:19:53.565Z,4.10
2023-05-05T12:22:27.064Z,4.18
2023-05-05T12:24:55.130Z,4.05
2023-05-05T12:27:22.344Z,3.85
2023-05-05T12:29:49.430Z,4.10
2023-05-05T12:32:29.315Z,3.90
2023-05-05T12:34:57.595Z,4.28
2023-05-05T12:37:25.624Z,4.43
2023-05-05T12:39:54.905Z,4.57
2023-05-05T12:42:22.280Z,4.10
2023-05-05T12:44:49.298Z,3.60
2023-05-05T12:47:30.479Z,3.70
2023-05-05T12:49:57.739Z,4.57
2023-05-05T12:52:24.742Z,3.60
2023-05-05T12:55:00.630Z,4.40
2023-05-05T12:57:27.657Z,3.80
2023-05-05T12:59:54.701Z,4.40
2023-05-05T13:02:21.753Z,4.10
2023-05-05T13:04:53.296Z,3.88
2023-05-05T13:07:21.330Z,3.70
2023-05-05T13:09:49.078Z,3.53
2023-05-05T13:12:18.561Z,3.63
2023-05-05T13:14:46.726Z,3.78
2023-05-05T13:17:14.122Z,4.00
2023-05-05T13:19:46.624Z,4.45
2023-05-05T13:22:13.851Z,3.70
2023-05-05T13:24:50.676Z,3.80
2023-05-05T13:27:19.353Z,4.00
2023-05-05T13:29:46.784Z,4.65
2023-05-05T13:32:13.829Z,4.80
2023-05-05T13:34:41.567Z,4.60
2023-05-05T13:37:08.804Z,4.97
2023-05-05T13:39:36.987Z,4.88
2023-05-05T13:42:04.202Z,4.25
2023-05-05T13:44:31.475Z,4.43
2023-05-05T13:46:58.647Z,4.20
2023-05-05T13:49:25.839Z,3.45
2023-05-05T13:51:52.837Z,3.70
2023-05-05T13:54:19.844Z,3.92
2023-05-05T13:56:47.028Z,3.65
2023-05-05T13:59:14.109Z,4.20
2023-05-05T14:01:41.339Z,4.72
2023-05-05T14:04:08.537Z,3.78
2023-05-05T14:06:36.260Z,4.32
2023-05-05T14:09:05.932Z,4.90
2023-05-05T14:11:33.327Z,4.78
2023-05-05T14:14:00.761Z,4.93
2023-05-05T14:16:27.761Z,3.92
2023-05-05T14:18:54.767Z,4.63
2023-05-05T14:21:23.719Z,4.90
2023-05-05T14:23:51.166Z,4.57
2023-05-05T14:26:18.173Z,5.18
2023-05-05T14:28:46.729Z,5.43
2023-05-05T14:31:15.330Z,5.22
2023-05-05T14:33:45.331Z,4.93
2023-05-05T14:36:12.669Z,4.70
2023-05-05T14:38:39.676Z,4.75
2023-05-05T14:41:06.769Z,4.50
2023-05-05T14:43:33.801Z,4.68
2023-05-05T14:46:05.784Z,4.57
2023-05-05T14:48:33.736Z,4.72
2023-05-05T14:51:00.827Z,4.63
2023-05-05T14:53:27.773Z,4.60
2023-05-05T14:55:54.968Z,4.75
2023-05-05T14:58:24.623Z,4.55
2023-05-05T15:00:52.893Z,4.38
2023-05-05T15:03:20.047Z,4.45
2023-05-05T15:05:47.149Z,3.88
2023-05-05T15:08:14.634Z,4.30
2023-05-05T15:10:41.572Z,4.20
2023-05-05T15:13:08.754Z,4.10
2023-05-05T15:15:35.972Z,3.88
2023-05-05T15:18:03.074Z,4.60
2023-05-05T15:20:30.065Z,4.07
2023-05-05T15:22:57.344Z,4.25
2023-05-05T15:25:24.326Z,4.53
2023-05-05T15:27:51.535Z,4.18
2023-05-05T15:30:18.537Z,3.90
2023-05-05T15:32:45.641Z,4.40
2023-05-05T15:35:13.024Z,4.50
2023-05-05T15:37:40.908Z,4.50
2023-05-05T15:40:08.661Z,3.67
2023-05-05T15:42:35.891Z,3.58
2023-05-05T15:45:03.040Z,3.53
2023-05-05T15:47:31.387Z,3.58
2023-05-05T15:49:58.358Z,3.63
2023-05-05T15:52:25.424Z,3.58
2023-05-05T15:54:52.449Z,2.97
2023-05-05T15:57:19.548Z,3.30
2023-05-05T15:59:46.576Z,3.63
2023-05-05T16:02:13.727Z,3.30
2023-05-05T16:04:40.804Z,3.25
2023-05-05T16:07:07.784Z,5.35
2023-05-05T16:09:34.765Z,3.28
2023-05-05T16:12:02.765Z,2.97
2023-05-05T16:14:32.194Z,3.08
2023-05-05T16:16:59.334Z,3.17
2023-05-05T16:19:30.158Z,3.60
2023-05-05T16:21:57.231Z,3.30
2023-05-05T16:24:24.218Z,3.63
2023-05-05T16:26:51.550Z,3.55
2023-05-05T16:29:18.637Z,3.80
2023-05-05T16:31:45.676Z,3.83
2023-05-05T16:34:12.714Z,3.55
2023-05-05T16:36:39.703Z,3.50
2023-05-05T16:39:07.097Z,3.33
2023-05-05T16:41:34.475Z,3.70
2023-05-05T16:44:01.480Z,3.80
2023-05-05T16:46:28.485Z,3.70
2023-05-05T16:48:55.733Z,3.80
2023-05-05T16:51:22.723Z,3.63
2023-05-05T16:53:49.901Z,3.65
2023-05-05T16:56:16.914Z,3.60
2023-05-05T16:58:43.940Z,3.85
2023-05-05T17:01:11.022Z,3.80
2023-05-05T17:03:39.129Z,3.78
2023-05-05T17:06:06.217Z,3.78
2023-05-05T17:08:33.212Z,3.90
2023-05-05T17:11:00.258Z,4.45
2023-05-05T17:13:27.306Z,4.07
2023-05-05T17:15:54.327Z,4.28
2023-05-05T17:18:22.788Z,5.65
2023-05-05T17:20:50.268Z,4.50
2023-05-05T17:23:17.320Z,4.20
2023-05-05T17:25:44.364Z,4.65
2023-05-05T17:28:11.807Z,3.88
2023-05-05T17:30:38.748Z,3.95
2023-05-05T17:33:05.761Z,3.70
2023-05-05T17:35:32.945Z,3.75
2023-05-05T17:37:59.944Z,3.95
2023-05-05T17:40:27.126Z,3.67
2023-05-05T17:42:54.441Z,3.90
2023-05-05T17:45:21.411Z,3.53
2023-05-05T17:47:48.527Z,3.92
2023-05-05T17:50:15.500Z,3.90
2023-05-05T17:52:45.083Z,3.80
2023-05-05T17:55:12.673Z,3.85
2023-05-05T17:57:39.862Z,3.90
2023-05-05T18:00:07.374Z,4.05
2023-05-05T18:02:40.555Z,3.97
2023-05-05T18:05:08.763Z,3.75
2023-05-05T18:07:36.010Z,4.18
2023-05-05T18:10:03.036Z,4.00
2023-05-05T18:12:30.660Z,3.83
2023-05-05T18:14:57.653Z,3.88
2023-05-05T18:17:24.613Z,3.67
2023-05-05T18:19:51.648Z,3.42
2023-05-05T18:22:18.630Z,3.90
2023-05-05T18:24:46.457Z,4.53
2023-05-05T18:27:13.452Z,4.07
2023-05-05T18:29:40.536Z,4.20
2023-05-05T18:32:07.561Z,4.63
2023-05-05T18:34:34.766Z,4.57
2023-05-05T18:37:02.015Z,4.85
2023-05-05T18:39:29.166Z,4.63
2023-05-05T18:41:56.300Z,4.25
2023-05-05T18:44:23.384Z,4.00
2023-05-05T18:46:50.678Z,4.10
2023-05-05T18:49:17.743Z,4.72
2023-05-05T18:51:44.881Z,4.22
2023-05-05T18:54:12.023Z,4.60
2023-05-05T18:56:39.072Z,4.45
2023-05-05T18:59:06.217Z,5.00
2023-05-05T19:01:33.364Z,4.80
2023-05-05T19:04:00.868Z,4.45
2023-05-05T19:06:28.051Z,4.63
2023-05-05T19:08:56.797Z,5.07
2023-05-05T19:11:24.296Z,4.45
2023-05-05T19:13:51.442Z,5.05
2023-05-05T19:16:18.577Z,4.40
2023-05-05T19:18:45.971Z,4.80
2023-05-05T19:21:13.024Z,4.75
2023-05-05T19:23:41.033Z,6.13
2023-05-05T19:26:08.155Z,4.97
2023-05-05T19:28:35.256Z,5.18
2023-05-05T19:31:02.343Z,3.25
2023-05-05T19:33:29.442Z,2.97
2023-05-05T19:35:56.638Z,6.10
2023-05-05T19:38:23.866Z,4.70
2023-05-05T19:40:51.123Z,2.50
2023-05-05T19:43:18.482Z,2.70
2023-05-05T19:45:46.280Z,1.90
2023-05-05T19:48:13.439Z,2.08
2023-05-05T19:50:40.782Z,2.08
2023-05-05T19:53:08.093Z,3.03
2023-05-05T19:55:35.737Z,2.53
2023-05-05T19:58:02.833Z,3.10
2023-05-05T20:00:30.122Z,2.80
2023-05-05T20:02:57.475Z,3.22
2023-05-05T20:05:24.737Z,3.42
2023-05-05T20:07:51.990Z,3.22
2023-05-05T20:10:19.205Z,3.53
2023-05-05T20:12:48.336Z,4.22
2023-05-05T20:15:19.685Z,3.70
2023-05-05T20:17:47.558Z,3.80
2023-05-05T20:20:20.384Z,4.22
2023-05-05T20:22:47.671Z,3.80
2023-05-05T20:25:18.028Z,4.85
2023-05-05T20:27:45.917Z,5.20
2023-05-05T20:30:13.449Z,5.28
2023-05-05T20:32:41.497Z,5.40
2023-05-05T20:35:09.290Z,4.43
2023-05-05T20:37:36.390Z,5.78
2023-05-05T20:40:07.840Z,6.15
2023-05-05T20:42:35.425Z,5.03
2023-05-05T20:45:02.559Z,6.07
2023-05-05T20:47:30.072Z,5.40
2023-05-05T20:49:57.429Z,5.40
2023-05-05T20:52:24.459Z,6.20
2023-05-05T20:54:51.506Z,5.55
2023-05-05T20:57:18.555Z,4.43
2023-05-05T20:59:45.954Z,4.60
2023-05-05T21:02:13.148Z,5.30
2023-05-05T21:04:40.203Z,5.03
2023-05-05T21:07:07.326Z,5.22
2023-05-05T21:09:37.437Z,5.65
2023-05-05T21:12:04.722Z,3.90
2023-05-05T21:14:31.737Z,5.15
2023-05-05T21:16:58.910Z,4.88
2023-05-05T21:19:25.980Z,3.55
2023-05-05T21:21:53.756Z,3.63
2023-05-05T21:24:21.266Z,4.15
2023-05-05T21:26:48.492Z,3.95
2023-05-05T21:29:15.554Z,3.22
2023-05-05T21:31:42.579Z,3.92
2023-05-05T21:34:09.559Z,4.05
2023-05-05T21:36:37.169Z,3.83
2023-05-05T21:39:04.226Z,4.55
2023-05-05T21:41:31.252Z,4.45
2023-05-05T21:43:58.429Z,3.60
2023-05-05T21:46:25.455Z,6.53
2023-05-05T21:48:52.543Z,6.88
2023-05-05T21:51:19.928Z,5.13
2023-05-05T21:53:46.977Z,4.60
2023-05-05T21:56:14.119Z,6.07
2023-05-05T21:58:41.230Z,6.03
2023-05-05T22:01:08.420Z,4.70
2023-05-05T22:03:35.978Z,4.57
2023-05-05T22:06:21.649Z,4.70
2023-05-05T22:09:07.720Z,3.63
2023-05-05T22:11:34.718Z,4.30
2023-05-05T22:14:01.704Z,4.35
2023-05-05T22:16:28.916Z,4.40
2023-05-05T22:18:55.933Z,4.45
2023-05-05T22:21:22.931Z,4.63
2023-05-05T22:23:50.130Z,4.32
2023-05-05T22:26:17.182Z,2.72
2023-05-05T22:28:44.122Z,4.53
2023-05-05T22:31:11.659Z,4.20
2023-05-05T22:33:38.656Z,4.18
2023-05-05T22:36:05.911Z,4.20
2023-05-05T22:38:32.897Z,4.28
2023-05-05T22:41:00.130Z,4.88
2023-05-05T22:43:27.126Z,4.38
2023-05-05T22:45:54.340Z,4.65
2023-05-05T22:48:21.731Z,5.38
2023-05-05T22:50:48.858Z,3.92
2023-05-05T22:53:15.818Z,4.22
2023-05-05T22:55:43.309Z,4.82
2023-05-05T22:58:10.353Z,4.60
2023-05-05T23:00:37.369Z,4.88
2023-05-05T23:03:04.424Z,3.90
2023-05-05T23:05:31.487Z,5.32
2023-05-05T23:08:01.198Z,5.22
2023-05-05T23:10:29.069Z,4.60
2023-05-05T23:12:56.127Z,4.80
2023-05-05T23:15:23.899Z,4.43
2023-05-05T23:17:51.892Z,4.65
2023-05-05T23:20:19.294Z,3.92
2023-05-05T23:22:46.234Z,4.65
2023-05-05T23:25:13.185Z,4.13
2023-05-05T23:27:41.110Z,3.85
2023-05-05T23:30:09.153Z,4.10
2023-05-05T23:32:36.502Z,3.95
2023-05-05T23:35:04.221Z,4.13
2023-05-05T23:37:31.290Z,4.07
2023-05-05T23:39:58.303Z,3.88
2023-05-05T23:42:25.436Z,3.58
2023-05-05T23:44:52.850Z,5.75
2023-05-05T23:47:19.936Z,3.67
2023-05-05T23:49:47.231Z,4.18
2023-05-05T23:52:14.291Z,4.10
2023-05-05T23:54:41.565Z,3.70
2023-05-05T23:57:08.592Z,4.20
2023-05-05T23:59:35.632Z,4.30
